createdAt,value
2022-08-28T00:01:33.482Z,98941.00
2022-08-28T00:04:01.109Z,98945.00
2022-08-28T00:06:28.049Z,98944.00
2022-08-28T00:08:56.222Z,98939.00
2022-08-28T00:11:23.340Z,98945.00
2022-08-28T00:13:51.499Z,98945.00
2022-08-28T00:16:19.804Z,98946.00
2022-08-28T00:18:47.072Z,98935.00
2022-08-28T00:21:14.658Z,98943.00
2022-08-28T00:23:43.342Z,98941.00
2022-08-28T00:26:32.055Z,98945.00
2022-08-28T00:28:59.054Z,98933.00
2022-08-28T00:31:25.951Z,98938.00
2022-08-28T00:33:53.098Z,98926.00
2022-08-28T00:36:19.979Z,98933.00
2022-08-28T00:38:47.164Z,98942.00
2022-08-28T00:41:14.032Z,98929.00
2022-08-28T00:43:49.353Z,98951.00
2022-08-28T00:46:22.470Z,98944.00
2022-08-28T00:48:50.327Z,98946.00
2022-08-28T00:51:39.282Z,98940.00
2022-08-28T00:54:08.023Z,98950.00
2022-08-28T00:56:37.934Z,98952.00
2022-08-28T00:59:09.462Z,98947.00
2022-08-28T01:01:38.795Z,98947.00
2022-08-28T01:04:06.451Z,98936.00
2022-08-28T01:06:35.389Z,98942.00
2022-08-28T01:09:02.630Z,98947.00
2022-08-28T01:11:30.597Z,98942.00
2022-08-28T01:14:01.880Z,98939.00
2022-08-28T01:16:33.694Z,98933.00
2022-08-28T01:19:04.165Z,98939.00
2022-08-28T01:21:39.982Z,98933.00
2022-08-28T01:24:14.355Z,98940.00
2022-08-28T01:26:42.018Z,98925.00
2022-08-28T01:29:09.505Z,98936.00
2022-08-28T01:31:38.039Z,98932.00
2022-08-28T01:34:06.174Z,98930.00
2022-08-28T01:36:33.518Z,98926.00
2022-08-28T01:39:08.284Z,98931.00
2022-08-28T01:41:38.859Z,98935.00
2022-08-28T01:44:06.162Z,98935.00
2022-08-28T01:46:33.268Z,98944.00
2022-08-28T01:49:00.330Z,98937.00
2022-08-28T01:51:27.865Z,98932.00
2022-08-28T01:54:02.110Z,98934.00
2022-08-28T01:56:29.806Z,98939.00
2022-08-28T01:58:56.626Z,98928.00
2022-08-28T02:01:24.460Z,98925.00
2022-08-28T02:03:53.141Z,98930.00
2022-08-28T02:06:20.254Z,98932.00
2022-08-28T02:08:47.122Z,98935.00
2022-08-28T02:11:14.090Z,98930.00
2022-08-28T02:13:40.949Z,98934.00
2022-08-28T02:16:09.658Z,98936.00
2022-08-28T02:18:37.899Z,98937.00
2022-08-28T02:21:06.334Z,98939.00
2022-08-28T02:23:33.178Z,98928.00
2022-08-28T02:26:00.228Z,98920.00
2022-08-28T02:28:27.078Z,98927.00
2022-08-28T02:30:53.884Z,98938.00
2022-08-28T02:33:20.733Z,98933.00
2022-08-28T02:35:47.610Z,98935.00
2022-08-28T02:38:14.337Z,98941.00
2022-08-28T02:40:41.385Z,98940.00
2022-08-28T02:43:09.899Z,98933.00
2022-08-28T02:45:37.022Z,98923.00
2022-08-28T02:48:04.569Z,98945.00
2022-08-28T02:50:38.856Z,98937.00
2022-08-28T02:53:05.635Z,98937.00
2022-08-28T02:55:34.217Z,98925.00
2022-08-28T02:58:01.187Z,98921.00
2022-08-28T03:00:27.984Z,98931.00
2022-08-28T03:02:54.944Z,98914.00
2022-08-28T03:05:24.132Z,98938.00
2022-08-28T03:07:53.385Z,98935.00
2022-08-28T03:10:21.602Z,98930.00
2022-08-28T03:12:48.422Z,98916.00
2022-08-28T03:15:15.336Z,98930.00
2022-08-28T03:17:42.081Z,98937.00
2022-08-28T03:20:10.527Z,98937.00
2022-08-28T03:22:56.636Z,98939.00
2022-08-28T03:25:24.688Z,98932.00
2022-08-28T03:27:52.118Z,98925.00
2022-08-28T03:30:20.401Z,98933.00
2022-08-28T03:32:47.258Z,98930.00
2022-08-28T03:35:14.455Z,98923.00
2022-08-28T03:37:41.261Z,98938.00
2022-08-28T03:40:09.379Z,98932.00
2022-08-28T03:42:36.187Z,98933.00
2022-08-28T03:45:05.274Z,98931.00
2022-08-28T03:47:32.040Z,98929.00
2022-08-28T03:49:59.072Z,98934.00
2022-08-28T03:52:26.137Z,98931.00
2022-08-28T03:54:52.917Z,98933.00
2022-08-28T03:57:21.670Z,98929.00
2022-08-28T03:59:50.792Z,98938.00
2022-08-28T04:02:20.539Z,98936.00
2022-08-28T04:04:49.601Z,98940.00
2022-08-28T04:07:17.990Z,98935.00
2022-08-28T04:09:44.964Z,98924.00
2022-08-28T04:12:11.921Z,98936.00
2022-08-28T04:14:38.807Z,98920.00
2022-08-28T04:17:06.843Z,98925.00
2022-08-28T04:19:33.777Z,98931.00
2022-08-28T04:22:01.247Z,98925.00
2022-08-28T04:24:28.010Z,98941.00
2022-08-28T04:26:54.808Z,98943.00
2022-08-28T04:29:22.953Z,98933.00
2022-08-28T04:31:50.207Z,98944.00
2022-08-28T04:34:17.985Z,98952.00
2022-08-28T04:36:45.385Z,98955.00
2022-08-28T04:39:12.194Z,98958.00
2022-08-28T04:41:39.126Z,98950.00
2022-08-28T04:44:06.577Z,98953.00
2022-08-28T04:46:33.437Z,98945.00
2022-08-28T04:49:00.633Z,98955.00
2022-08-28T04:51:28.461Z,98958.00
2022-08-28T04:53:55.834Z,98961.00
2022-08-28T04:56:22.940Z,98961.00
2022-08-28T04:58:49.949Z,98955.00
2022-08-28T05:01:20.650Z,98959.00
2022-08-28T05:03:48.638Z,98968.00
2022-08-28T05:06:16.412Z,98956.00
2022-08-28T05:08:44.001Z,98968.00
2022-08-28T05:11:33.518Z,98966.00
2022-08-28T05:14:04.864Z,98972.00
2022-08-28T05:16:32.937Z,98974.00
2022-08-28T05:19:03.518Z,98975.00
2022-08-28T05:21:30.344Z,98963.00
2022-08-28T05:23:58.339Z,98977.00
2022-08-28T05:26:26.843Z,98977.00
2022-08-28T05:28:56.292Z,98971.00
2022-08-28T05:31:24.306Z,98972.00
2022-08-28T05:33:52.680Z,98985.00
2022-08-28T05:36:22.644Z,98980.00
2022-08-28T05:38:51.334Z,98968.00
2022-08-28T05:41:24.224Z,98984.00
2022-08-28T05:43:52.893Z,98988.00
2022-08-28T05:46:20.747Z,98994.00
2022-08-28T05:48:49.364Z,98984.00
2022-08-28T05:51:22.386Z,98985.00
2022-08-28T05:53:49.931Z,98982.00
2022-08-28T05:56:20.500Z,98994.00
2022-08-28T05:58:47.413Z,98996.00
2022-08-28T06:01:23.146Z,98999.00
2022-08-28T06:03:56.830Z,99001.00
2022-08-28T06:06:26.091Z,98999.00
2022-08-28T06:09:01.622Z,99001.00
2022-08-28T06:11:30.534Z,99006.00
2022-08-28T06:14:03.673Z,98997.00
2022-08-28T06:16:32.250Z,99010.00
2022-08-28T06:19:00.390Z,99005.00
2022-08-28T06:21:28.069Z,99009.00
2022-08-28T06:23:55.220Z,99008.00
2022-08-28T06:26:22.584Z,99004.00
2022-08-28T06:28:49.355Z,99015.00
2022-08-28T06:31:24.519Z,99009.00
2022-08-28T06:33:54.238Z,99003.00
2022-08-28T06:36:21.945Z,99006.00
2022-08-28T06:38:48.948Z,99012.00
2022-08-28T06:41:16.569Z,99017.00
2022-08-28T06:43:43.314Z,99002.00
2022-08-28T06:46:10.273Z,99023.00
2022-08-28T06:48:37.275Z,99028.00
2022-08-28T06:51:07.678Z,99027.00
2022-08-28T06:53:34.543Z,99023.00
2022-08-28T06:56:09.035Z,99037.00
2022-08-28T06:58:38.376Z,99037.00
2022-08-28T07:01:10.408Z,99040.00
2022-08-28T07:03:42.573Z,99044.00
2022-08-28T07:06:14.378Z,99054.00
2022-08-28T07:08:42.858Z,99059.00
2022-08-28T07:11:15.733Z,99065.00
2022-08-28T07:13:44.060Z,99065.00
2022-08-28T07:16:12.969Z,99065.00
2022-08-28T07:18:40.150Z,99055.00
2022-08-28T07:21:11.654Z,99053.00
2022-08-28T07:23:40.370Z,99054.00
2022-08-28T07:26:10.360Z,99055.00
2022-08-28T07:28:37.671Z,99055.00
2022-08-28T07:31:07.785Z,99044.00
2022-08-28T07:33:34.925Z,99051.00
2022-08-28T07:36:01.806Z,99051.00
2022-08-28T07:38:28.691Z,99063.00
2022-08-28T07:40:55.630Z,99062.00
2022-08-28T07:43:41.000Z,99071.00
2022-08-28T07:46:09.641Z,99074.00
2022-08-28T07:48:38.133Z,99068.00
2022-08-28T07:51:06.151Z,99065.00
2022-08-28T07:53:36.455Z,99074.00
2022-08-28T07:56:04.873Z,99078.00
2022-08-28T07:58:32.802Z,99081.00
2022-08-28T08:00:59.867Z,99081.00
2022-08-28T08:03:28.845Z,99084.00
2022-08-28T08:06:03.061Z,99079.00
2022-08-28T08:08:32.127Z,99093.00
2022-08-28T08:11:01.755Z,99080.00
2022-08-28T08:13:29.658Z,99101.00
2022-08-28T08:16:04.492Z,99106.00
2022-08-28T08:18:31.891Z,99103.00
2022-08-28T08:20:59.115Z,99105.00
2022-08-28T08:23:26.443Z,99103.00
2022-08-28T08:26:05.366Z,99106.00
2022-08-28T08:28:34.594Z,99107.00
2022-08-28T08:31:10.031Z,99110.00
2022-08-28T08:33:39.155Z,99114.00
2022-08-28T08:36:07.055Z,99122.00
2022-08-28T08:38:34.588Z,99118.00
2022-08-28T08:41:04.881Z,99124.00
2022-08-28T08:43:37.124Z,99130.00
2022-08-28T08:46:03.941Z,99119.00
2022-08-28T08:48:35.233Z,99126.00
2022-08-28T08:51:06.665Z,99122.00
2022-08-28T08:53:45.012Z,99128.00
2022-08-28T08:56:16.916Z,99118.00
2022-08-28T08:58:48.955Z,99129.00
2022-08-28T09:01:37.584Z,99122.00
2022-08-28T09:04:22.661Z,99125.00
2022-08-28T09:06:59.514Z,99117.00
2022-08-28T09:09:28.702Z,99118.00
2022-08-28T09:12:00.116Z,99124.00
2022-08-28T09:14:49.668Z,99123.00
2022-08-28T09:17:19.310Z,99120.00
2022-08-28T09:19:46.495Z,99126.00
2022-08-28T09:22:13.413Z,99126.00
2022-08-28T09:24:41.215Z,99120.00
2022-08-28T09:27:28.209Z,99127.00
2022-08-28T09:30:08.008Z,99125.00
2022-08-28T09:32:44.449Z,99127.00
2022-08-28T09:35:18.930Z,99132.00
2022-08-28T09:37:45.858Z,99120.00
2022-08-28T09:40:20.306Z,99120.00
2022-08-28T09:43:17.006Z,99127.00
2022-08-28T09:45:43.999Z,99124.00
2022-08-28T09:48:23.160Z,99134.00
2022-08-28T09:51:09.302Z,99132.00
2022-08-28T09:54:02.229Z,99130.00
2022-08-28T09:56:34.999Z,99128.00
2022-08-28T09:59:18.831Z,99130.00
2022-08-28T10:01:58.981Z,99130.00
2022-08-28T10:04:37.924Z,99122.00
2022-08-28T10:07:12.207Z,99125.00
2022-08-28T10:09:48.383Z,99125.00
2022-08-28T10:12:59.374Z,99131.00
2022-08-28T10:15:38.015Z,99136.00
2022-08-28T10:18:17.409Z,99134.00
2022-08-28T10:21:07.897Z,99130.00
2022-08-28T10:23:58.505Z,99131.00
2022-08-28T10:26:37.420Z,99135.00
2022-08-28T10:29:19.438Z,99136.00
2022-08-28T10:32:20.392Z,99133.00
2022-08-28T10:35:17.388Z,99124.00
2022-08-28T10:37:56.258Z,99122.00
2022-08-28T10:40:32.258Z,99116.00
2022-08-28T10:43:07.771Z,99120.00
2022-08-28T10:45:35.083Z,99115.00
2022-08-28T10:48:09.242Z,99122.00
2022-08-28T10:50:50.991Z,99115.00
2022-08-28T10:53:23.218Z,99113.00
2022-08-28T10:55:55.410Z,99123.00
2022-08-28T10:58:25.579Z,99118.00
2022-08-28T11:00:56.698Z,99116.00
2022-08-28T11:03:35.122Z,99116.00
2022-08-28T11:06:37.077Z,99109.00
2022-08-28T11:09:25.601Z,99107.00
2022-08-28T11:12:22.446Z,99110.00
2022-08-28T11:14:53.978Z,99107.00
2022-08-28T11:17:27.795Z,99110.00
2022-08-28T11:20:17.770Z,99103.00
2022-08-28T11:23:13.294Z,99113.00
2022-08-28T11:25:59.514Z,99094.00
2022-08-28T11:28:27.105Z,99099.00
2022-08-28T11:31:06.172Z,99103.00
2022-08-28T11:33:49.832Z,99101.00
2022-08-28T11:36:22.835Z,99097.00
2022-08-28T11:39:00.909Z,99099.00
2022-08-28T11:41:29.250Z,99096.00
2022-08-28T11:44:14.002Z,99093.00
2022-08-28T11:46:49.551Z,99097.00
2022-08-28T11:49:34.358Z,99096.00
2022-08-28T11:52:22.847Z,99094.00
2022-08-28T11:55:08.137Z,99090.00
2022-08-28T12:00:40.068Z,99096.00
2022-08-28T12:03:06.851Z,99103.00
2022-08-28T12:05:33.646Z,99094.00
2022-08-28T12:08:02.678Z,99084.00
2022-08-28T12:10:34.108Z,99090.00
2022-08-28T12:13:03.042Z,99095.00
2022-08-28T12:15:29.860Z,99091.00
2022-08-28T12:18:00.625Z,99091.00
2022-08-28T12:20:35.362Z,99079.00
2022-08-28T12:23:28.176Z,99080.00
2022-08-28T12:26:16.212Z,99079.00
2022-08-28T12:29:02.464Z,99089.00
2022-08-28T12:31:47.882Z,99081.00
2022-08-28T12:34:42.396Z,99077.00
2022-08-28T12:37:27.569Z,99084.00
2022-08-28T12:39:58.002Z,99076.00
2022-08-28T12:42:31.744Z,99080.00
2022-08-28T12:45:22.824Z,99079.00
2022-08-28T12:47:51.757Z,99085.00
2022-08-28T12:50:37.107Z,99084.00
2022-08-28T12:53:11.138Z,99071.00
2022-08-28T12:55:39.345Z,99084.00
2022-08-28T12:58:13.072Z,99087.00
2022-08-28T13:00:54.597Z,99080.00
2022-08-28T13:03:21.797Z,99081.00
2022-08-28T13:05:57.332Z,99080.00
2022-08-28T13:08:24.711Z,99083.00
2022-08-28T13:10:52.479Z,99079.00
2022-08-28T13:13:40.028Z,99078.00
2022-08-28T13:16:11.935Z,99075.00
2022-08-28T13:18:43.761Z,99073.00
2022-08-28T13:21:34.811Z,99068.00
2022-08-28T13:24:22.059Z,99063.00
2022-08-28T13:27:09.012Z,99057.00
2022-08-28T13:29:37.359Z,99054.00
2022-08-28T13:32:09.647Z,99053.00
2022-08-28T13:34:38.578Z,99060.00
2022-08-28T13:37:45.316Z,99061.00
2022-08-28T13:40:36.896Z,99062.00
2022-08-28T13:43:07.030Z,99057.00
2022-08-28T13:45:42.936Z,99050.00
2022-08-28T13:48:15.583Z,99052.00
2022-08-28T13:50:47.202Z,99042.00
2022-08-28T13:53:16.579Z,99041.00
2022-08-28T13:55:44.045Z,99043.00
2022-08-28T13:58:10.866Z,99033.00
2022-08-28T14:00:43.267Z,99035.00
2022-08-28T14:03:28.625Z,99029.00
2022-08-28T14:05:55.883Z,99035.00
2022-08-28T14:08:22.649Z,99031.00
2022-08-28T14:10:49.762Z,99030.00
2022-08-28T14:13:16.603Z,99037.00
2022-08-28T14:15:43.366Z,99035.00
2022-08-28T14:18:10.146Z,99032.00
2022-08-28T14:20:38.114Z,99032.00
2022-08-28T14:23:05.213Z,99030.00
2022-08-28T14:25:37.116Z,99022.00
2022-08-28T14:28:05.901Z,99025.00
2022-08-28T14:30:32.743Z,99024.00
2022-08-28T14:32:59.482Z,99030.00
2022-08-28T14:35:26.630Z,99026.00
2022-08-28T14:37:53.405Z,99024.00
2022-08-28T14:40:20.241Z,99025.00
2022-08-28T14:42:47.096Z,99028.00
2022-08-28T14:45:14.137Z,99023.00
2022-08-28T14:47:40.942Z,99022.00
2022-08-28T14:50:08.199Z,99022.00
2022-08-28T14:52:35.453Z,99015.00
2022-08-28T14:55:02.391Z,99004.00
2022-08-28T14:57:29.312Z,99019.00
2022-08-28T14:59:56.066Z,99011.00
2022-08-28T15:02:22.804Z,99008.00
2022-08-28T15:04:49.559Z,99013.00
2022-08-28T15:07:16.380Z,99011.00
2022-08-28T15:09:43.242Z,98996.00
2022-08-28T15:12:11.209Z,99004.00
2022-08-28T15:14:38.046Z,99004.00
2022-08-28T15:17:05.461Z,99009.00
2022-08-28T15:19:32.762Z,99005.00
2022-08-28T15:21:59.737Z,99004.00
2022-08-28T15:24:29.701Z,99009.00
2022-08-28T15:26:57.703Z,99000.00
2022-08-28T15:29:24.476Z,98996.00
2022-08-28T15:31:52.699Z,99005.00
2022-08-28T15:34:22.739Z,99005.00
2022-08-28T15:36:54.945Z,99000.00
2022-08-28T15:39:45.585Z,99000.00
2022-08-28T15:42:12.410Z,99009.00
2022-08-28T15:44:39.401Z,99015.00
2022-08-28T15:47:06.739Z,99008.00
2022-08-28T15:49:46.608Z,99020.00
2022-08-28T15:52:18.473Z,98999.00
2022-08-28T15:54:45.315Z,99003.00
2022-08-28T15:57:12.194Z,99005.00
2022-08-28T15:59:49.351Z,99004.00
2022-08-28T16:02:18.685Z,98997.00
2022-08-28T16:04:45.774Z,98992.00
2022-08-28T16:07:12.761Z,98987.00
2022-08-28T16:09:39.502Z,98998.00
2022-08-28T16:12:06.566Z,98990.00
2022-08-28T16:14:33.984Z,98999.00
2022-08-28T16:17:05.923Z,98998.00
2022-08-28T16:19:41.618Z,98998.00
2022-08-28T16:22:12.841Z,98999.00
2022-08-28T16:24:39.642Z,99000.00
2022-08-28T16:27:09.534Z,98995.00
2022-08-28T16:29:39.961Z,98997.00
2022-08-28T16:32:06.935Z,98988.00
2022-08-28T16:34:34.770Z,98992.00
2022-08-28T16:37:01.783Z,98993.00
2022-08-28T16:39:28.569Z,99003.00
2022-08-28T16:41:55.325Z,98998.00
2022-08-28T16:44:25.362Z,98999.00
2022-08-28T16:46:53.495Z,98995.00
2022-08-28T16:49:20.914Z,98989.00
2022-08-28T16:51:47.798Z,98994.00
2022-08-28T16:54:16.200Z,98986.00
2022-08-28T16:56:42.983Z,98986.00
2022-08-28T16:59:10.375Z,98969.00
2022-08-28T17:01:40.958Z,98988.00
2022-08-28T17:04:09.863Z,98989.00
2022-08-28T17:06:36.652Z,98980.00
2022-08-28T17:09:03.638Z,98984.00
2022-08-28T17:11:31.049Z,98979.00
2022-08-28T17:13:58.762Z,98990.00
2022-08-28T17:16:31.301Z,98997.00
2022-08-28T17:18:59.296Z,98993.00
2022-08-28T17:21:44.692Z,98984.00
2022-08-28T17:24:15.145Z,98988.00
2022-08-28T17:26:43.654Z,98987.00
2022-08-28T17:29:10.906Z,98993.00
2022-08-28T17:31:38.137Z,98993.00
2022-08-28T17:34:07.215Z,98991.00
2022-08-28T17:36:35.455Z,98995.00
2022-08-28T17:39:05.439Z,99000.00
2022-08-28T17:41:33.410Z,98996.00
2022-08-28T17:44:01.173Z,98999.00
2022-08-28T17:46:28.331Z,99005.00
2022-08-28T17:48:56.223Z,99002.00
2022-08-28T17:51:40.378Z,99004.00
2022-08-28T17:54:15.361Z,99011.00
2022-08-28T17:56:42.526Z,99013.00
2022-08-28T17:59:10.973Z,99011.00
2022-08-28T18:01:38.812Z,99010.00
2022-08-28T18:04:05.860Z,99018.00
2022-08-28T18:06:33.266Z,99014.00
2022-08-28T18:09:00.557Z,99008.00
2022-08-28T18:11:28.274Z,99022.00
2022-08-28T18:13:55.162Z,99022.00
2022-08-28T18:16:22.001Z,99022.00
2022-08-28T18:18:48.890Z,99020.00
2022-08-28T18:21:15.663Z,99028.00
2022-08-28T18:23:42.488Z,99037.00
2022-08-28T18:26:09.332Z,99039.00
2022-08-28T18:28:36.689Z,99036.00
2022-08-28T18:31:06.172Z,99047.00
2022-08-28T18:33:33.771Z,99052.00
2022-08-28T18:36:00.550Z,99054.00
2022-08-28T18:38:28.568Z,99062.00
2022-08-28T18:40:56.199Z,99059.00
2022-08-28T18:43:23.994Z,99054.00
2022-08-28T18:45:51.342Z,99056.00
2022-08-28T18:48:19.172Z,99060.00
2022-08-28T18:50:47.972Z,99057.00
2022-08-28T18:53:16.511Z,99067.00
2022-08-28T18:55:43.307Z,99065.00
2022-08-28T18:58:14.955Z,99068.00
2022-08-28T19:00:42.655Z,99069.00
2022-08-28T19:03:10.457Z,99086.00
2022-08-28T19:05:38.705Z,99086.00
2022-08-28T19:08:06.421Z,99074.00
2022-08-28T19:10:35.205Z,99081.00
2022-08-28T19:13:02.793Z,99079.00
2022-08-28T19:15:31.212Z,99085.00
2022-08-28T19:18:00.355Z,99084.00
2022-08-28T19:20:28.285Z,99082.00
2022-08-28T19:22:56.092Z,99077.00
2022-08-28T19:25:28.517Z,99088.00
2022-08-28T19:28:01.422Z,99087.00
2022-08-28T19:30:33.028Z,99103.00
2022-08-28T19:33:02.358Z,99089.00
2022-08-28T19:35:29.333Z,99092.00
2022-08-28T19:37:56.253Z,99096.00
2022-08-28T19:40:23.212Z,99092.00
2022-08-28T19:42:50.407Z,99104.00
2022-08-28T19:45:18.413Z,99111.00
2022-08-28T19:47:46.794Z,99116.00
2022-08-28T19:50:14.732Z,99113.00
2022-08-28T19:52:43.142Z,99121.00
2022-08-28T19:55:18.319Z,99128.00
2022-08-28T19:57:46.777Z,99119.00
2022-08-28T20:00:16.446Z,99125.00
2022-08-28T20:02:43.959Z,99126.00
2022-08-28T20:05:11.645Z,99128.00
2022-08-28T20:07:38.404Z,99134.00
2022-08-28T20:10:06.150Z,99133.00
2022-08-28T20:12:33.842Z,99137.00
2022-08-28T20:15:03.670Z,99127.00
2022-08-28T20:17:30.835Z,99127.00
2022-08-28T20:20:02.343Z,99132.00
2022-08-28T20:22:31.820Z,99123.00
2022-08-28T20:24:59.062Z,99132.00
2022-08-28T20:27:26.182Z,99129.00
2022-08-28T20:29:53.121Z,99133.00
2022-08-28T20:32:19.898Z,99135.00
2022-08-28T20:34:46.669Z,99133.00
2022-08-28T20:37:13.719Z,99144.00
2022-08-28T20:39:41.666Z,99131.00
2022-08-28T20:42:10.045Z,99146.00
2022-08-28T20:44:36.875Z,99147.00
2022-08-28T20:47:04.262Z,99147.00
2022-08-28T20:49:31.115Z,99143.00
2022-08-28T20:51:58.823Z,99145.00
2022-08-28T20:54:29.425Z,99144.00
2022-08-28T20:56:58.864Z,99150.00
2022-08-28T20:59:29.663Z,99138.00
2022-08-28T21:02:05.344Z,99158.00
2022-08-28T21:04:36.752Z,99146.00
2022-08-28T21:07:04.193Z,99148.00
2022-08-28T21:09:43.967Z,99149.00
2022-08-28T21:12:19.167Z,99147.00
2022-08-28T21:14:51.518Z,99140.00
2022-08-28T21:17:29.072Z,99147.00
2022-08-28T21:20:09.174Z,99151.00
2022-08-28T21:22:37.146Z,99151.00
2022-08-28T21:25:06.229Z,99152.00
2022-08-28T21:27:33.498Z,99158.00
2022-08-28T21:30:00.695Z,99161.00
2022-08-28T21:32:28.490Z,99169.00
2022-08-28T21:34:55.446Z,99159.00
2022-08-28T21:37:22.405Z,99157.00
2022-08-28T21:39:49.254Z,99170.00
2022-08-28T21:42:16.114Z,99166.00
2022-08-28T21:44:50.270Z,99163.00
2022-08-28T21:47:19.062Z,99167.00
2022-08-28T21:49:49.451Z,99161.00
2022-08-28T21:52:18.389Z,99155.00
2022-08-28T21:54:45.214Z,99148.00
2022-08-28T21:57:11.981Z,99171.00
2022-08-28T21:59:38.990Z,99164.00
2022-08-28T22:02:06.353Z,99170.00
2022-08-28T22:04:33.356Z,99166.00
2022-08-28T22:07:00.115Z,99167.00
2022-08-28T22:09:27.146Z,99166.00
2022-08-28T22:11:53.965Z,99169.00
2022-08-28T22:14:21.003Z,99159.00
2022-08-28T22:16:47.830Z,99162.00
2022-08-28T22:19:14.664Z,99150.00
2022-08-28T22:21:59.681Z,99161.00
2022-08-28T22:24:26.484Z,99165.00
2022-08-28T22:26:57.298Z,99165.00
2022-08-28T22:29:25.009Z,99159.00
2022-08-28T22:31:52.484Z,99168.00
2022-08-28T22:34:19.498Z,99161.00
2022-08-28T22:36:46.258Z,99168.00
2022-08-28T22:39:13.122Z,99169.00
2022-08-28T22:41:40.307Z,99165.00
2022-08-28T22:44:07.661Z,99157.00
2022-08-28T22:46:34.602Z,99160.00
2022-08-28T22:49:01.684Z,99155.00
2022-08-28T22:51:28.429Z,99163.00
2022-08-28T22:53:55.650Z,99158.00
2022-08-28T22:56:22.395Z,99158.00
2022-08-28T22:58:49.142Z,99152.00
2022-08-28T23:01:19.890Z,99166.00
2022-08-28T23:03:47.184Z,99167.00
2022-08-28T23:06:14.210Z,99160.00
2022-08-28T23:08:41.364Z,99164.00
2022-08-28T23:11:08.987Z,99167.00
2022-08-28T23:13:36.020Z,99158.00
2022-08-28T23:16:03.228Z,99156.00
2022-08-28T23:18:41.530Z,99163.00
2022-08-28T23:21:19.479Z,99171.00
2022-08-28T23:23:46.749Z,99150.00
2022-08-28T23:26:14.773Z,99166.00
2022-08-28T23:28:42.237Z,99160.00
2022-08-28T23:31:09.697Z,99168.00
2022-08-28T23:33:36.956Z,99156.00
2022-08-28T23:36:04.770Z,99162.00
2022-08-28T23:38:31.575Z,99149.00
2022-08-28T23:40:58.563Z,99157.00
2022-08-28T23:43:25.342Z,99155.00
2022-08-28T23:45:52.775Z,99155.00
2022-08-28T23:48:20.718Z,99148.00
2022-08-28T23:50:47.526Z,99157.00
2022-08-28T23:53:14.760Z,99147.00
2022-08-28T23:55:43.958Z,99156.00
2022-08-28T23:58:10.750Z,99155.00
